createdAt,value
2024-03-27T00:00:50.294Z,98715.56
2024-03-27T00:06:25.494Z,98712.98
2024-03-27T00:11:41.171Z,98707.86
2024-03-27T00:16:49.726Z,98700.22
2024-03-27T00:22:00.541Z,98696.08
2024-03-27T00:27:19.035Z,98690.44
2024-03-27T00:32:27.061Z,98689.52
2024-03-27T00:37:40.575Z,98689.30
2024-03-27T00:43:06.835Z,98686.38
2024-03-27T00:48:12.147Z,98685.20
2024-03-27T00:53:20.415Z,98684.07
2024-03-27T00:58:38.810Z,98683.23
2024-03-27T01:03:54.963Z,98673.77
2024-03-27T01:09:20.236Z,98669.76
2024-03-27T01:14:45.846Z,98660.20
2024-03-27T01:19:53.336Z,98656.55
2024-03-27T01:25:12.498Z,98653.23
2024-03-27T01:30:37.989Z,98647.09
2024-03-27T01:35:50.224Z,98636.23
2024-03-27T01:40:58.090Z,98634.36
2024-03-27T01:46:10.197Z,98627.78
2024-03-27T01:51:16.986Z,98623.40
2024-03-27T01:56:34.950Z,98622.99
2024-03-27T02:02:00.727Z,98621.40
2024-03-27T02:07:09.425Z,98629.45
2024-03-27T02:12:19.620Z,98622.36
2024-03-27T02:17:26.962Z,98617.77
2024-03-27T02:22:40.858Z,98615.35
2024-03-27T02:27:48.916Z,98617.70
2024-03-27T02:33:14.317Z,98617.66
2024-03-27T02:38:29.430Z,98621.07
2024-03-27T02:43:36.845Z,98611.94
2024-03-27T02:48:51.956Z,98609.23
2024-03-27T02:54:17.199Z,98603.43
2024-03-27T02:59:25.276Z,98598.36
2024-03-27T03:04:40.462Z,98599.04
2024-03-27T03:09:59.454Z,98590.48
2024-03-27T03:15:17.694Z,98585.02
2024-03-27T03:20:42.927Z,98581.17
2024-03-27T03:25:58.280Z,98568.21
2024-03-27T03:31:09.109Z,98563.72
2024-03-27T03:36:24.217Z,98555.13
2024-03-27T03:41:49.551Z,98547.96
2024-03-27T03:47:04.737Z,98539.79
2024-03-27T03:52:28.357Z,98525.89
2024-03-27T03:57:53.569Z,98518.16
2024-03-27T04:03:18.791Z,98513.46
2024-03-27T04:08:36.841Z,98503.80
2024-03-27T04:14:02.053Z,98498.73
2024-03-27T04:19:27.339Z,98492.58
2024-03-27T04:24:52.561Z,98485.23
2024-03-27T04:30:05.791Z,98487.54
2024-03-27T04:35:25.479Z,98488.13
2024-03-27T04:40:51.068Z,98492.77
2024-03-27T04:46:16.297Z,98503.41
2024-03-27T04:51:34.002Z,98490.58
2024-03-27T04:56:50.074Z,98480.72
2024-03-27T05:01:55.190Z,98477.20
2024-03-27T05:07:05.566Z,98476.71
2024-03-27T05:12:31.036Z,98477.42
2024-03-27T05:17:39.041Z,98469.83
2024-03-27T05:22:47.432Z,98455.17
2024-03-27T05:28:01.828Z,98434.13
2024-03-27T05:33:19.492Z,98418.82
2024-03-27T05:38:44.756Z,98424.64
2024-03-27T05:43:49.922Z,98437.77
2024-03-27T05:49:17.740Z,98441.27
2024-03-27T05:54:42.978Z,98431.08
2024-03-27T06:00:08.224Z,98432.96
2024-03-27T06:05:33.608Z,98436.11
2024-03-27T06:10:58.832Z,98435.78
2024-03-27T06:16:17.106Z,98441.25
2024-03-27T06:21:42.380Z,98446.70
2024-03-27T06:27:07.626Z,98439.89
2024-03-27T06:32:33.224Z,98432.70
2024-03-27T06:37:58.611Z,98424.39
2024-03-27T06:43:24.017Z,98420.84
2024-03-27T06:48:49.322Z,98418.52
2024-03-27T06:54:14.621Z,98422.73
2024-03-27T06:59:32.600Z,98421.20
2024-03-27T07:04:58.181Z,98417.49
2024-03-27T07:10:08.399Z,98414.02
2024-03-27T07:15:34.028Z,98422.79
2024-03-27T07:20:59.276Z,98430.04
2024-03-27T07:26:30.009Z,98433.29
2024-03-27T07:31:55.453Z,98424.02
2024-03-27T07:37:20.769Z,98414.98
2024-03-27T07:42:26.055Z,98416.61
2024-03-27T07:47:41.266Z,98422.04
2024-03-27T07:53:06.571Z,98430.77
2024-03-27T07:58:16.448Z,98424.97
2024-03-27T08:03:31.686Z,98416.14
2024-03-27T08:08:57.101Z,98417.92
2024-03-27T08:14:26.465Z,98413.03
2024-03-27T08:19:41.563Z,98412.29
2024-03-27T08:24:46.829Z,98419.75
2024-03-27T08:30:12.134Z,98425.98
2024-03-27T08:35:37.732Z,98425.54
2024-03-27T08:40:56.927Z,98425.61
2024-03-27T08:46:23.241Z,98421.61
2024-03-27T08:51:40.270Z,98418.52
2024-03-27T08:56:48.604Z,98417.90
2024-03-27T09:02:13.840Z,98417.77
2024-03-27T09:07:37.763Z,98418.33
2024-03-27T09:13:03.137Z,98423.05
2024-03-27T09:18:18.563Z,98422.14
2024-03-27T09:23:27.638Z,98415.63
2024-03-27T09:28:43.344Z,98413.95
2024-03-27T09:33:51.502Z,98415.73
2024-03-27T09:39:01.695Z,98415.84
2024-03-27T09:44:31.823Z,98419.45
2024-03-27T09:49:44.451Z,98416.72
2024-03-27T09:54:53.034Z,98412.34
2024-03-27T10:00:18.334Z,98408.55
2024-03-27T10:05:47.067Z,98406.77
2024-03-27T10:10:57.978Z,98408.42
2024-03-27T10:16:06.896Z,98405.31
2024-03-27T10:21:17.267Z,98394.52
2024-03-27T10:26:25.368Z,98392.05
2024-03-27T10:31:35.373Z,98392.52
2024-03-27T10:36:42.851Z,98383.86
2024-03-27T10:41:50.975Z,98370.41
2024-03-27T10:47:16.250Z,98361.90
2024-03-27T10:52:42.972Z,98369.80
2024-03-27T10:58:08.451Z,98361.92
2024-03-27T11:03:36.944Z,98360.83
2024-03-27T11:09:05.440Z,98359.45
2024-03-27T11:14:38.097Z,98360.69
2024-03-27T11:20:05.093Z,98354.59
2024-03-27T11:25:33.550Z,98357.70
2024-03-27T11:31:01.172Z,98358.48
2024-03-27T11:36:27.181Z,98351.50
2024-03-27T11:41:52.471Z,98345.73
2024-03-27T11:47:17.801Z,98340.35
2024-03-27T11:52:43.543Z,98335.90
2024-03-27T11:57:48.983Z,98337.63
2024-03-27T12:03:14.569Z,98333.26
2024-03-27T12:08:40.049Z,98335.17
2024-03-27T12:14:05.504Z,98334.89
2024-03-27T12:19:30.873Z,98330.83
2024-03-27T12:24:55.882Z,98320.75
2024-03-27T12:30:21.792Z,98311.44
2024-03-27T12:35:39.435Z,98306.59
2024-03-27T12:40:57.176Z,98300.98
2024-03-27T12:46:22.718Z,98293.19
2024-03-27T12:51:47.960Z,98288.28
2024-03-27T12:57:14.464Z,98284.90
2024-03-27T13:02:39.741Z,98288.60
2024-03-27T13:07:44.998Z,98283.36
2024-03-27T13:13:10.630Z,98269.54
2024-03-27T13:18:28.545Z,98269.95
2024-03-27T13:23:37.723Z,98265.81
2024-03-27T13:29:02.981Z,98261.00
2024-03-27T13:34:10.666Z,98264.66
2024-03-27T13:39:36.024Z,98265.11
2024-03-27T13:44:41.320Z,98269.69
2024-03-27T13:50:06.563Z,98268.60
2024-03-27T13:55:12.135Z,98264.59
2024-03-27T14:00:38.192Z,98266.50
2024-03-27T14:06:03.433Z,98265.95
2024-03-27T14:11:28.898Z,98271.86
2024-03-27T14:16:54.463Z,98262.33
2024-03-27T14:22:12.481Z,98261.29
2024-03-27T14:27:20.097Z,98264.18
2024-03-27T14:32:45.429Z,98258.34
2024-03-27T14:37:53.008Z,98251.92
2024-03-27T14:42:58.275Z,98251.96
2024-03-27T14:48:05.813Z,98244.77
2024-03-27T14:53:10.928Z,98242.90
2024-03-27T14:58:29.224Z,98240.72
2024-03-27T15:03:54.709Z,98234.20
2024-03-27T15:08:59.924Z,98232.13
2024-03-27T15:14:05.154Z,98231.38
2024-03-27T15:19:13.371Z,98230.58
2024-03-27T15:24:21.178Z,98233.57
2024-03-27T15:29:26.478Z,98243.02
2024-03-27T15:34:53.080Z,98253.98
2024-03-27T15:40:01.361Z,98267.27
2024-03-27T15:45:10.175Z,98261.47
2024-03-27T15:50:28.614Z,98254.95
2024-03-27T15:55:44.902Z,98251.83
2024-03-27T16:01:01.379Z,98250.20
2024-03-27T16:06:10.067Z,98246.89
2024-03-27T16:11:35.329Z,98246.61
2024-03-27T16:16:43.024Z,98239.38
2024-03-27T16:21:50.601Z,98234.80
2024-03-27T16:26:58.261Z,98228.69
2024-03-27T16:32:07.100Z,98224.73
2024-03-27T16:37:15.584Z,98228.78
2024-03-27T16:42:23.561Z,98231.58
2024-03-27T16:47:48.811Z,98233.05
2024-03-27T16:52:56.100Z,98236.55
2024-03-27T16:58:21.363Z,98240.52
2024-03-27T17:03:28.474Z,98234.30
2024-03-27T17:08:36.191Z,98233.70
2024-03-27T17:13:50.198Z,98235.53
2024-03-27T17:19:15.467Z,98238.73
2024-03-27T17:24:41.405Z,98243.99
2024-03-27T17:29:49.514Z,98243.52
2024-03-27T17:35:14.913Z,98242.32
2024-03-27T17:40:20.351Z,98238.80
2024-03-27T17:45:45.640Z,98239.73
2024-03-27T17:51:10.848Z,98238.42
2024-03-27T17:56:36.150Z,98234.35
2024-03-27T18:02:01.479Z,98235.45
2024-03-27T18:07:27.010Z,98231.19
2024-03-27T18:12:44.844Z,98239.08
2024-03-27T18:18:10.067Z,98236.19
2024-03-27T18:23:35.307Z,98235.06
2024-03-27T18:29:00.707Z,98230.63
2024-03-27T18:34:25.961Z,98232.41
2024-03-27T18:39:51.759Z,98223.22
2024-03-27T18:45:20.795Z,98218.51
2024-03-27T18:50:29.726Z,98213.39
2024-03-27T18:55:55.905Z,98214.13
2024-03-27T19:01:21.762Z,98206.46
2024-03-27T19:06:47.831Z,98202.53
2024-03-27T19:12:13.139Z,98204.43
2024-03-27T19:17:38.648Z,98204.61
2024-03-27T19:23:03.953Z,98208.30
2024-03-27T19:28:14.655Z,98211.16
2024-03-27T19:33:29.123Z,98208.20
2024-03-27T19:38:55.148Z,98209.42
2024-03-27T19:44:11.379Z,98212.09
2024-03-27T19:49:36.669Z,98208.30
2024-03-27T19:55:02.014Z,98199.31
2024-03-27T20:00:29.361Z,98197.59
2024-03-27T20:05:54.974Z,98190.30
2024-03-27T20:11:21.710Z,98180.89
2024-03-27T20:16:47.302Z,98178.38
2024-03-27T20:22:12.631Z,98182.23
2024-03-27T20:27:18.986Z,98184.39
2024-03-27T20:32:45.419Z,98174.35
2024-03-27T20:38:00.420Z,98170.89
2024-03-27T20:43:06.543Z,98168.61
2024-03-27T20:48:32.667Z,98160.68
2024-03-27T20:53:57.863Z,98150.14
2024-03-27T20:59:23.141Z,98138.92
2024-03-27T21:04:48.403Z,98129.54
2024-03-27T21:10:17.160Z,98122.69
2024-03-27T21:15:33.024Z,98122.94
2024-03-27T21:20:59.017Z,98116.11
2024-03-27T21:26:06.705Z,98117.31
2024-03-27T21:31:21.355Z,98114.28
2024-03-27T21:36:46.700Z,98108.63
2024-03-27T21:41:55.009Z,98104.46
2024-03-27T21:47:00.075Z,98101.68
2024-03-27T21:52:25.627Z,98088.45
2024-03-27T21:57:50.920Z,98079.38
2024-03-27T22:03:07.704Z,98070.42
2024-03-27T22:08:32.993Z,98067.01
2024-03-27T22:13:58.277Z,98072.49
2024-03-27T22:19:23.553Z,98066.90
2024-03-27T22:24:48.801Z,98057.70
2024-03-27T22:30:14.060Z,98060.47
2024-03-27T22:35:29.564Z,98061.79
2024-03-27T22:40:47.530Z,98057.78
2024-03-27T22:46:00.143Z,98047.89
2024-03-27T22:51:09.131Z,98038.87
2024-03-27T22:56:39.919Z,98041.10
2024-03-27T23:02:01.690Z,98041.15
2024-03-27T23:07:20.351Z,98031.25
2024-03-27T23:12:44.313Z,98017.11
2024-03-27T23:18:09.585Z,98005.66
2024-03-27T23:23:17.706Z,97982.92
2024-03-27T23:28:43.011Z,97980.84
2024-03-27T23:34:00.967Z,97990.81
2024-03-27T23:39:26.341Z,97995.00
2024-03-27T23:44:51.599Z,97981.63
2024-03-27T23:50:16.912Z,97991.45
2024-03-27T23:55:42.170Z,98005.11
